createdAt,value
2022-11-07T00:01:52.565Z,13.33
2022-11-07T00:04:25.785Z,13.31
2022-11-07T00:10:28.539Z,13.46
2022-11-07T00:13:04.452Z,13.42
2022-11-07T00:15:37.172Z,13.43
2022-11-07T00:18:10.791Z,13.34
2022-11-07T00:20:43.536Z,13.39
2022-11-07T00:23:17.719Z,13.34
2022-11-07T00:25:50.486Z,13.36
2022-11-07T00:28:23.699Z,13.34
2022-11-07T00:30:59.391Z,13.33
2022-11-07T00:33:32.212Z,13.32
2022-11-07T00:36:05.994Z,13.29
2022-11-07T00:38:40.064Z,13.30
2022-11-07T00:41:12.849Z,13.29
2022-11-07T00:43:46.120Z,13.36
2022-11-07T00:46:19.489Z,13.34
2022-11-07T00:48:52.358Z,13.31
2022-11-07T00:51:26.910Z,13.34
2022-11-07T00:54:03.101Z,13.30
2022-11-07T00:56:35.931Z,13.34
2022-11-07T00:59:08.701Z,13.38
2022-11-07T01:01:41.603Z,13.31
2022-11-07T01:04:32.738Z,13.34
2022-11-07T01:07:06.889Z,13.23
2022-11-07T01:09:41.112Z,13.38
2022-11-07T01:12:14.059Z,13.36
2022-11-07T01:14:46.840Z,13.37
2022-11-07T01:17:20.068Z,13.36
2022-11-07T01:19:53.133Z,13.36
2022-11-07T01:22:26.158Z,13.39
2022-11-07T01:25:00.666Z,13.39
2022-11-07T01:27:34.021Z,13.42
2022-11-07T01:30:08.664Z,13.37
2022-11-07T01:32:41.749Z,13.46
2022-11-07T01:35:15.172Z,13.51
2022-11-07T01:37:48.023Z,13.49
2022-11-07T01:40:22.626Z,13.41
2022-11-07T01:42:55.544Z,13.43
2022-11-07T01:45:30.900Z,13.45
2022-11-07T01:48:05.016Z,13.39
2022-11-07T01:50:38.103Z,13.35
2022-11-07T01:53:11.089Z,13.42
2022-11-07T01:55:46.600Z,13.37
2022-11-07T01:58:19.850Z,13.35
2022-11-07T02:00:52.588Z,13.36
2022-11-07T02:03:25.647Z,13.37
2022-11-07T02:05:59.920Z,13.31
2022-11-07T02:08:35.036Z,13.36
2022-11-07T02:11:12.290Z,13.30
2022-11-07T02:13:45.314Z,13.36
2022-11-07T02:16:18.171Z,13.33
2022-11-07T02:18:50.997Z,13.35
2022-11-07T02:21:35.776Z,13.33
2022-11-07T02:24:24.835Z,13.44
2022-11-07T02:26:59.524Z,13.42
2022-11-07T02:29:34.895Z,13.46
2022-11-07T02:32:10.237Z,13.40
2022-11-07T02:34:42.988Z,13.43
2022-11-07T02:37:24.365Z,13.42
2022-11-07T02:39:58.904Z,13.46
2022-11-07T02:42:43.513Z,13.49
2022-11-07T02:45:20.199Z,13.54
2022-11-07T02:47:53.193Z,13.52
2022-11-07T02:50:26.171Z,13.57
2022-11-07T02:52:59.004Z,13.46
2022-11-07T02:55:33.196Z,13.55
2022-11-07T02:58:06.408Z,13.57
2022-11-07T03:00:39.303Z,13.55
2022-11-07T03:03:13.344Z,13.61
2022-11-07T03:05:46.361Z,13.64
2022-11-07T03:08:19.109Z,13.54
2022-11-07T03:10:53.193Z,13.48
2022-11-07T03:13:26.054Z,13.43
2022-11-07T03:15:59.657Z,13.46
2022-11-07T03:18:32.374Z,13.44
2022-11-07T03:21:06.972Z,13.42
2022-11-07T03:23:40.452Z,13.42
2022-11-07T03:26:14.823Z,13.47
2022-11-07T03:28:47.625Z,13.58
2022-11-07T03:31:20.524Z,13.52
2022-11-07T03:33:54.026Z,13.52
2022-11-07T03:36:26.963Z,13.55
2022-11-07T03:39:00.073Z,13.58
2022-11-07T03:41:34.413Z,13.49
2022-11-07T03:44:07.463Z,13.51
2022-11-07T03:46:40.261Z,13.49
2022-11-07T03:49:13.213Z,13.53
2022-11-07T03:51:46.207Z,13.48
2022-11-07T03:54:19.030Z,13.48
2022-11-07T03:56:53.128Z,13.48
2022-11-07T03:59:25.975Z,13.47
2022-11-07T04:01:58.773Z,13.49
2022-11-07T04:04:31.870Z,13.48
2022-11-07T04:07:04.572Z,13.57
2022-11-07T04:09:37.539Z,13.58
2022-11-07T04:12:29.158Z,13.57
2022-11-07T04:15:19.245Z,13.61
2022-11-07T04:17:51.991Z,13.61
2022-11-07T04:20:24.763Z,13.41
2022-11-07T04:22:57.822Z,13.58
2022-11-07T04:25:47.762Z,13.59
2022-11-07T04:28:21.872Z,13.60
2022-11-07T04:30:55.048Z,13.54
2022-11-07T04:33:27.806Z,13.52
2022-11-07T04:36:00.761Z,13.54
2022-11-07T04:38:33.490Z,13.58
2022-11-07T04:41:06.629Z,13.57
2022-11-07T04:43:40.732Z,13.51
2022-11-07T04:46:13.840Z,13.48
2022-11-07T04:48:46.606Z,13.53
2022-11-07T04:51:23.029Z,13.63
2022-11-07T04:53:55.806Z,13.57
2022-11-07T04:56:34.192Z,13.63
2022-11-07T04:59:09.216Z,13.66
2022-11-07T05:01:45.131Z,13.60
2022-11-07T05:04:17.960Z,13.51
2022-11-07T05:06:50.820Z,13.55
2022-11-07T05:09:23.737Z,13.55
2022-11-07T05:11:57.304Z,13.52
2022-11-07T05:14:31.838Z,13.64
2022-11-07T05:17:05.669Z,13.54
2022-11-07T05:19:38.422Z,13.45
2022-11-07T05:22:29.153Z,13.54
2022-11-07T05:25:02.123Z,13.62
2022-11-07T05:27:35.795Z,13.58
2022-11-07T05:30:13.389Z,13.60
2022-11-07T05:32:46.279Z,13.58
2022-11-07T05:35:19.248Z,13.59
2022-11-07T05:37:52.539Z,13.62
2022-11-07T05:40:25.484Z,13.58
2022-11-07T05:43:01.661Z,13.63
2022-11-07T05:45:37.653Z,13.60
2022-11-07T05:48:14.515Z,13.59
2022-11-07T05:50:47.746Z,13.62
2022-11-07T05:53:21.609Z,13.68
2022-11-07T05:55:55.098Z,13.58
2022-11-07T05:58:27.828Z,13.66
2022-11-07T06:01:06.581Z,13.60
2022-11-07T06:03:39.343Z,13.58
2022-11-07T06:06:12.577Z,13.70
2022-11-07T06:08:45.437Z,13.71
2022-11-07T06:11:20.420Z,13.64
2022-11-07T06:13:54.889Z,13.59
2022-11-07T06:16:29.865Z,13.64
2022-11-07T06:19:03.277Z,13.60
2022-11-07T06:21:36.598Z,13.68
2022-11-07T06:24:15.123Z,13.68
2022-11-07T06:26:48.397Z,13.68
2022-11-07T06:29:21.359Z,13.58
2022-11-07T06:31:55.482Z,13.64
2022-11-07T06:34:28.375Z,13.65
2022-11-07T06:37:03.408Z,13.55
2022-11-07T06:39:36.539Z,13.61
2022-11-07T06:42:11.453Z,13.64
2022-11-07T06:44:44.291Z,13.55
2022-11-07T06:47:18.417Z,13.62
2022-11-07T06:49:51.265Z,13.58
2022-11-07T06:52:24.194Z,13.67
2022-11-07T06:54:57.020Z,13.64
2022-11-07T06:57:30.528Z,13.57
2022-11-07T07:00:05.420Z,13.59
2022-11-07T07:02:57.392Z,13.54
2022-11-07T07:05:33.065Z,13.50
2022-11-07T07:08:07.495Z,13.57
2022-11-07T07:10:43.670Z,13.57
2022-11-07T07:13:16.724Z,13.52
2022-11-07T07:15:56.566Z,13.49
2022-11-07T07:18:31.743Z,13.49
2022-11-07T07:21:06.571Z,13.56
2022-11-07T07:23:39.917Z,13.54
2022-11-07T07:26:15.068Z,13.49
2022-11-07T07:28:48.956Z,13.57
2022-11-07T07:31:24.882Z,13.60
2022-11-07T07:33:59.362Z,13.64
2022-11-07T07:36:33.407Z,13.62
2022-11-07T07:39:06.123Z,13.70
2022-11-07T07:41:40.340Z,13.71
2022-11-07T07:44:13.245Z,13.71
2022-11-07T07:46:46.024Z,13.75
2022-11-07T07:49:20.144Z,13.78
2022-11-07T07:51:52.942Z,13.76
2022-11-07T07:54:25.603Z,13.78
2022-11-07T07:56:58.387Z,13.73
2022-11-07T07:59:31.144Z,13.79
2022-11-07T08:02:04.094Z,13.83
2022-11-07T08:04:38.301Z,13.82
2022-11-07T08:07:11.511Z,13.85
2022-11-07T08:09:44.410Z,13.90
2022-11-07T08:12:17.188Z,13.88
2022-11-07T08:14:49.867Z,13.92
2022-11-07T08:17:22.748Z,13.89
2022-11-07T08:19:56.894Z,13.93
2022-11-07T08:22:29.659Z,14.04
2022-11-07T08:25:02.639Z,14.02
2022-11-07T08:27:35.431Z,14.07
2022-11-07T08:30:17.771Z,14.06
2022-11-07T08:32:50.965Z,14.09
2022-11-07T08:35:25.034Z,14.02
2022-11-07T08:37:57.820Z,14.13
2022-11-07T08:40:30.585Z,14.17
2022-11-07T08:43:06.556Z,14.19
2022-11-07T08:45:39.385Z,14.18
2022-11-07T08:48:12.551Z,14.17
2022-11-07T08:50:47.000Z,14.20
2022-11-07T08:53:20.192Z,14.41
2022-11-07T08:55:53.281Z,14.43
2022-11-07T08:58:29.852Z,14.45
2022-11-07T09:01:07.228Z,14.52
2022-11-07T09:03:54.620Z,14.53
2022-11-07T09:06:32.852Z,14.52
2022-11-07T09:09:11.585Z,14.59
2022-11-07T09:11:48.364Z,14.63
2022-11-07T09:14:21.562Z,14.66
2022-11-07T09:16:54.164Z,14.62
2022-11-07T09:19:28.352Z,14.64
2022-11-07T09:22:02.532Z,14.67
2022-11-07T09:24:35.273Z,14.70
2022-11-07T09:27:07.945Z,14.71
2022-11-07T09:29:41.548Z,14.79
2022-11-07T09:32:38.702Z,14.79
2022-11-07T09:35:08.504Z,14.82
2022-11-07T09:37:43.510Z,14.87
2022-11-07T09:40:25.374Z,14.91
2022-11-07T09:43:10.316Z,14.97
2022-11-07T09:45:55.365Z,14.99
2022-11-07T09:48:38.101Z,15.02
2022-11-07T09:51:17.054Z,15.07
2022-11-07T09:53:59.183Z,15.06
2022-11-07T09:56:33.969Z,15.11
2022-11-07T09:59:14.042Z,15.18
2022-11-07T10:01:51.221Z,15.24
2022-11-07T10:04:26.420Z,15.39
2022-11-07T10:07:08.256Z,15.45
2022-11-07T10:09:51.323Z,15.44
2022-11-07T10:12:46.935Z,15.50
2022-11-07T10:15:28.700Z,15.55
2022-11-07T10:18:13.805Z,15.58
2022-11-07T10:21:16.136Z,15.49
2022-11-07T10:24:01.825Z,15.49
2022-11-07T10:26:47.920Z,15.48
2022-11-07T10:29:23.513Z,15.56
2022-11-07T10:32:01.259Z,15.55
2022-11-07T10:34:37.940Z,15.53
2022-11-07T10:37:10.853Z,15.55
2022-11-07T10:39:43.624Z,15.60
2022-11-07T10:42:20.820Z,15.63
2022-11-07T10:44:55.244Z,15.64
2022-11-07T10:47:28.731Z,15.67
2022-11-07T10:50:03.641Z,15.69
2022-11-07T10:52:36.567Z,15.70
2022-11-07T10:55:10.158Z,15.71
2022-11-07T10:57:44.832Z,15.70
2022-11-07T11:00:28.631Z,15.62
2022-11-07T11:03:01.563Z,15.69
2022-11-07T11:05:42.970Z,15.72
2022-11-07T11:08:18.005Z,15.77
2022-11-07T11:10:51.530Z,15.75
2022-11-07T11:13:30.019Z,15.78
2022-11-07T11:16:25.462Z,15.89
2022-11-07T11:19:01.107Z,15.81
2022-11-07T11:21:42.080Z,15.78
2022-11-07T11:24:22.969Z,15.82
2022-11-07T11:27:00.316Z,15.85
2022-11-07T11:29:40.882Z,15.83
2022-11-07T11:32:21.371Z,15.84
2022-11-07T11:35:05.934Z,15.86
2022-11-07T11:37:44.102Z,15.90
2022-11-07T11:40:20.405Z,15.88
2022-11-07T11:42:58.705Z,15.89
2022-11-07T11:45:37.851Z,15.88
2022-11-07T11:48:24.395Z,15.92
2022-11-07T11:51:00.776Z,15.87
2022-11-07T11:53:33.889Z,15.94
2022-11-07T11:56:23.764Z,15.88
2022-11-07T11:59:14.047Z,15.94
2022-11-07T12:01:55.209Z,15.94
2022-11-07T12:04:43.797Z,15.89
2022-11-07T12:07:33.477Z,15.92
2022-11-07T12:10:13.929Z,15.85
2022-11-07T12:13:02.963Z,15.92
2022-11-07T12:15:45.635Z,15.91
2022-11-07T12:18:29.297Z,15.94
2022-11-07T12:21:13.689Z,16.01
2022-11-07T12:23:57.114Z,16.03
2022-11-07T12:26:35.669Z,16.00
2022-11-07T12:29:19.688Z,15.99
2022-11-07T12:32:07.260Z,15.96
2022-11-07T12:34:59.532Z,16.03
2022-11-07T12:37:52.480Z,16.04
2022-11-07T12:40:31.077Z,16.06
2022-11-07T12:43:19.040Z,16.10
2022-11-07T12:45:57.847Z,16.08
2022-11-07T12:49:00.395Z,16.08
2022-11-07T12:51:48.141Z,16.12
2022-11-07T12:54:39.849Z,16.07
2022-11-07T12:57:18.727Z,16.11
2022-11-07T12:59:55.494Z,16.10
2022-11-07T13:02:53.718Z,16.12
2022-11-07T13:05:42.813Z,16.04
2022-11-07T13:08:21.188Z,16.11
2022-11-07T13:10:59.507Z,16.11
2022-11-07T13:13:44.737Z,16.10
2022-11-07T13:16:26.719Z,16.20
2022-11-07T13:19:09.733Z,16.24
2022-11-07T13:21:43.667Z,16.15
2022-11-07T13:24:22.845Z,16.25
2022-11-07T13:26:55.627Z,16.19
2022-11-07T13:29:36.765Z,16.22
2022-11-07T13:32:12.249Z,16.23
2022-11-07T13:34:50.399Z,16.22
2022-11-07T13:37:27.211Z,16.19
2022-11-07T13:40:07.165Z,16.12
2022-11-07T13:42:42.209Z,16.09
2022-11-07T13:45:28.061Z,16.15
2022-11-07T13:48:06.814Z,16.21
2022-11-07T13:50:43.433Z,16.15
2022-11-07T13:53:21.923Z,16.15
2022-11-07T13:56:02.319Z,16.18
2022-11-07T13:58:38.341Z,16.13
2022-11-07T14:01:13.082Z,16.15
2022-11-07T14:03:46.063Z,16.12
2022-11-07T14:06:18.843Z,16.16
2022-11-07T14:08:51.974Z,16.18
2022-11-07T14:11:26.185Z,16.11
2022-11-07T14:13:58.969Z,16.10
2022-11-07T14:16:31.979Z,16.17
2022-11-07T14:19:06.962Z,16.18
2022-11-07T14:21:39.998Z,16.15
2022-11-07T14:24:21.137Z,16.01
2022-11-07T14:27:05.060Z,16.04
2022-11-07T14:29:38.067Z,16.09
2022-11-07T14:32:17.616Z,16.03
2022-11-07T14:34:52.194Z,16.03
2022-11-07T14:37:28.145Z,15.95
2022-11-07T14:40:01.109Z,15.92
2022-11-07T14:42:35.579Z,15.98
2022-11-07T14:45:12.950Z,15.98
2022-11-07T14:47:47.362Z,15.97
2022-11-07T14:50:24.921Z,15.99
2022-11-07T14:53:04.572Z,16.00
2022-11-07T14:55:40.337Z,16.00
2022-11-07T14:58:17.706Z,15.97
2022-11-07T15:00:55.788Z,15.98
2022-11-07T15:03:33.689Z,15.95
2022-11-07T15:06:07.249Z,15.98
2022-11-07T15:08:41.464Z,15.96
2022-11-07T15:11:28.544Z,15.94
2022-11-07T15:14:05.135Z,15.86
2022-11-07T15:16:40.047Z,15.86
2022-11-07T15:19:19.915Z,15.88
2022-11-07T15:21:55.837Z,15.89
2022-11-07T15:24:36.243Z,15.85
2022-11-07T15:27:20.401Z,15.85
2022-11-07T15:29:56.420Z,15.85
2022-11-07T15:32:33.651Z,15.83
2022-11-07T15:35:43.067Z,15.87
2022-11-07T15:38:18.125Z,15.83
2022-11-07T15:40:51.483Z,15.83
2022-11-07T15:43:24.354Z,15.82
2022-11-07T15:45:58.780Z,15.77
2022-11-07T15:48:39.791Z,15.81
2022-11-07T15:51:13.820Z,15.81
2022-11-07T15:53:47.013Z,15.81
2022-11-07T15:56:23.073Z,15.73
2022-11-07T15:58:58.359Z,15.66
2022-11-07T16:01:34.343Z,15.83
2022-11-07T16:04:07.471Z,15.79
2022-11-07T16:06:45.693Z,15.76
2022-11-07T16:09:22.007Z,15.69
2022-11-07T16:11:54.863Z,15.74
2022-11-07T16:14:43.409Z,15.71
2022-11-07T16:17:20.469Z,15.71
2022-11-07T16:19:57.419Z,15.77
2022-11-07T16:22:36.059Z,15.69
2022-11-07T16:25:18.564Z,15.72
2022-11-07T16:27:56.795Z,15.70
2022-11-07T16:30:36.132Z,15.65
2022-11-07T16:33:13.584Z,15.70
2022-11-07T16:35:49.460Z,15.68
2022-11-07T16:38:24.822Z,15.70
2022-11-07T16:40:57.723Z,15.83
2022-11-07T16:43:34.984Z,15.77
2022-11-07T16:46:14.208Z,15.72
2022-11-07T16:48:51.141Z,15.73
2022-11-07T16:51:24.052Z,15.70
2022-11-07T16:53:56.833Z,15.72
2022-11-07T16:56:33.054Z,15.78
2022-11-07T16:59:07.938Z,15.75
2022-11-07T17:01:40.937Z,15.72
2022-11-07T17:04:15.513Z,15.78
2022-11-07T17:06:48.751Z,15.87
2022-11-07T17:09:27.866Z,15.78
2022-11-07T17:12:00.774Z,15.80
2022-11-07T17:14:33.465Z,15.82
2022-11-07T17:17:06.971Z,15.79
2022-11-07T17:19:41.443Z,15.62
2022-11-07T17:22:15.672Z,15.66
2022-11-07T17:24:48.465Z,15.70
2022-11-07T17:27:23.771Z,15.68
2022-11-07T17:29:56.667Z,15.68
2022-11-07T17:32:29.471Z,15.67
2022-11-07T17:35:30.566Z,15.63
2022-11-07T17:37:57.239Z,15.70
2022-11-07T17:40:34.132Z,15.70
2022-11-07T17:43:10.120Z,15.63
2022-11-07T17:45:43.110Z,15.68
2022-11-07T17:48:19.255Z,15.65
2022-11-07T17:50:53.783Z,15.55
2022-11-07T17:53:27.960Z,15.67
2022-11-07T17:56:00.954Z,15.59
2022-11-07T17:58:34.288Z,15.60
2022-11-07T18:01:07.224Z,15.69
2022-11-07T18:03:39.881Z,15.62
2022-11-07T18:06:14.337Z,15.67
2022-11-07T18:08:52.280Z,15.60
2022-11-07T18:11:28.491Z,15.64
2022-11-07T18:14:01.841Z,15.65
2022-11-07T18:16:39.253Z,15.62
2022-11-07T18:19:14.991Z,15.55
2022-11-07T18:21:49.301Z,15.59
2022-11-07T18:24:22.611Z,15.57
2022-11-07T18:26:55.711Z,15.53
2022-11-07T18:29:29.128Z,15.58
2022-11-07T18:32:01.909Z,15.43
2022-11-07T18:34:35.024Z,15.48
2022-11-07T18:37:09.027Z,15.35
2022-11-07T18:39:42.056Z,15.43
2022-11-07T18:42:14.880Z,15.53
2022-11-07T18:44:47.846Z,15.41
2022-11-07T18:47:20.535Z,15.35
2022-11-07T18:49:57.503Z,15.33
2022-11-07T18:52:32.596Z,15.35
2022-11-07T18:55:07.881Z,15.34
2022-11-07T18:57:42.499Z,15.38
2022-11-07T19:00:17.089Z,15.27
2022-11-07T19:02:52.367Z,15.25
2022-11-07T19:05:25.700Z,15.29
2022-11-07T19:08:00.491Z,15.35
2022-11-07T19:10:33.845Z,15.24
2022-11-07T19:13:08.339Z,15.29
2022-11-07T19:15:41.499Z,15.21
2022-11-07T19:18:16.617Z,15.29
2022-11-07T19:20:50.025Z,15.33
2022-11-07T19:23:24.125Z,15.32
2022-11-07T19:25:56.979Z,15.27
2022-11-07T19:28:29.710Z,15.32
2022-11-07T19:31:04.160Z,15.23
2022-11-07T19:33:37.110Z,15.29
2022-11-07T19:36:13.301Z,15.21
2022-11-07T19:38:47.793Z,15.24
2022-11-07T19:41:20.752Z,15.28
2022-11-07T19:43:53.352Z,15.18
2022-11-07T19:46:26.423Z,15.24
2022-11-07T19:48:59.397Z,15.17
2022-11-07T19:51:32.474Z,15.20
2022-11-07T19:54:08.528Z,15.37
2022-11-07T19:56:41.402Z,15.32
2022-11-07T19:59:14.130Z,15.30
2022-11-07T20:02:04.220Z,15.28
2022-11-07T20:04:40.512Z,15.24
2022-11-07T20:07:13.634Z,15.27
2022-11-07T20:09:48.322Z,15.29
2022-11-07T20:12:21.204Z,15.25
2022-11-07T20:14:53.999Z,15.28
2022-11-07T20:17:26.795Z,15.25
2022-11-07T20:20:03.943Z,15.30
2022-11-07T20:22:43.824Z,15.37
2022-11-07T20:25:20.515Z,15.42
2022-11-07T20:27:53.508Z,15.37
2022-11-07T20:30:26.238Z,15.31
2022-11-07T20:32:59.156Z,15.35
2022-11-07T20:35:31.990Z,15.28
2022-11-07T20:38:05.760Z,15.27
2022-11-07T20:40:40.307Z,15.29
2022-11-07T20:43:21.149Z,15.27
2022-11-07T20:45:54.461Z,15.35
2022-11-07T20:48:29.317Z,15.27
2022-11-07T20:51:08.687Z,15.35
2022-11-07T20:53:48.416Z,15.36
2022-11-07T20:56:26.040Z,15.33
2022-11-07T20:58:59.412Z,15.41
2022-11-07T21:01:36.009Z,15.45
2022-11-07T21:04:12.129Z,15.38
2022-11-07T21:06:44.911Z,15.25
2022-11-07T21:09:17.823Z,15.21
2022-11-07T21:11:51.863Z,15.30
2022-11-07T21:14:25.255Z,15.31
2022-11-07T21:16:58.160Z,15.48
2022-11-07T21:19:31.364Z,15.64
2022-11-07T21:22:06.225Z,15.76
2022-11-07T21:24:42.285Z,15.81
2022-11-07T21:27:16.532Z,15.79
2022-11-07T21:29:49.376Z,15.78
2022-11-07T21:32:22.218Z,15.73
2022-11-07T21:34:55.394Z,15.74
2022-11-07T21:37:28.243Z,15.82
2022-11-07T21:40:01.055Z,15.77
2022-11-07T21:42:35.367Z,15.75
2022-11-07T21:45:09.132Z,15.82
2022-11-07T21:47:45.750Z,15.75
2022-11-07T21:50:43.017Z,15.74
2022-11-07T21:53:12.009Z,15.71
2022-11-07T21:55:44.854Z,15.64
2022-11-07T21:58:19.630Z,15.62
2022-11-07T22:00:52.517Z,15.64
2022-11-07T22:03:51.129Z,15.69
2022-11-07T22:06:19.773Z,15.58
2022-11-07T22:08:53.018Z,15.58
2022-11-07T22:11:25.886Z,15.59
2022-11-07T22:14:03.088Z,15.63
2022-11-07T22:16:36.281Z,15.58
2022-11-07T22:19:12.451Z,15.59
2022-11-07T22:21:45.912Z,15.61
2022-11-07T22:24:18.697Z,15.60
2022-11-07T22:26:51.391Z,15.59
2022-11-07T22:29:25.657Z,15.54
2022-11-07T22:32:00.355Z,15.52
2022-11-07T22:34:33.159Z,15.56
2022-11-07T22:37:05.874Z,15.55
2022-11-07T22:39:38.773Z,15.53
2022-11-07T22:42:11.601Z,15.47
2022-11-07T22:44:45.805Z,15.45
2022-11-07T22:47:18.541Z,15.45
2022-11-07T22:49:51.270Z,15.36
2022-11-07T22:52:24.255Z,15.34
2022-11-07T22:54:57.075Z,15.34
2022-11-07T22:57:32.564Z,15.32
2022-11-07T23:00:21.011Z,15.31
2022-11-07T23:02:54.800Z,15.24
2022-11-07T23:05:27.481Z,15.25
2022-11-07T23:08:00.742Z,15.20
2022-11-07T23:10:33.477Z,15.16
2022-11-07T23:13:06.360Z,15.17
2022-11-07T23:15:40.483Z,15.10
2022-11-07T23:18:13.473Z,15.08
2022-11-07T23:21:03.476Z,15.11
2022-11-07T23:23:37.161Z,15.07
2022-11-07T23:26:14.813Z,15.14
2022-11-07T23:28:47.957Z,15.04
2022-11-07T23:31:22.035Z,15.05
2022-11-07T23:33:55.056Z,15.06
2022-11-07T23:36:27.656Z,15.05
2022-11-07T23:39:05.007Z,15.01
2022-11-07T23:41:42.331Z,14.98
2022-11-07T23:44:16.525Z,15.02
2022-11-07T23:47:08.423Z,14.98
2022-11-07T23:49:58.460Z,15.00
2022-11-07T23:52:37.256Z,15.00
2022-11-07T23:55:27.835Z,14.97
2022-11-07T23:58:18.589Z,14.95
